Time;durP1;ratioP1;P1;durP2;ratioP2;P2;SDS_P1;SDS_P2;PMS_P1;PMS_P2;Temp;Humidity;BMP_temperature;BMP_pressure;BME280_temperature;BME280_humidity;BME280_pressure;Samples;Min_cycle;Max_cycle;Signal;HPM_P1;HPM_P2
2022/12/07 00:01:15;;;;;;;10.30;7.00;;;2.20;99.90;;;;;;5049329;28;20059;-78
2022/12/07 00:03:42;;;;;;;10.60;6.68;;;2.20;99.90;;;;;;5029898;28;20159;-79
2022/12/07 00:06:11;;;;;;;10.65;6.93;;;2.20;99.90;;;;;;5018425;28;20136;-79
2022/12/07 00:08:37;;;;;;;9.55;6.10;;;2.20;99.90;;;;;;5026389;28;20562;-79
2022/12/07 00:11:05;;;;;;;7.78;5.03;;;2.30;99.90;;;;;;5017553;28;20041;-79
2022/12/07 00:13:32;;;;;;;9.55;5.25;;;2.20;99.90;;;;;;5009627;28;20106;-79
2022/12/07 00:16:19;;;;;;;6.78;4.57;;;2.10;99.90;;;;;;5035261;28;20119;-79
2022/12/07 00:18:45;;;;;;;7.50;4.45;;;2.00;99.90;;;;;;5026428;28;20064;-78
2022/12/07 00:21:21;;;;;;;7.63;4.60;;;1.80;99.90;;;;;;5028236;28;20037;-79
2022/12/07 00:23:47;;;;;;;;;;;1.70;99.90;;;;;;5021594;28;20063;-79
2022/12/07 00:26:20;;;;;;;9.10;4.82;;;1.60;99.90;;;;;;5033547;28;19909;-79
2022/12/07 00:28:47;;;;;;;6.80;4.75;;;1.50;99.90;;;;;;5029269;28;20116;-79
2022/12/07 00:31:14;;;;;;;7.25;4.68;;;1.50;99.90;;;;;;5027632;28;20029;-79
2022/12/07 00:33:40;;;;;;;5.63;3.63;;;1.40;99.90;;;;;;5037989;28;20397;-79
2022/12/07 00:36:09;;;;;;;41.13;5.28;;;1.40;99.90;;;;;;4996755;28;20037;-79
2022/12/07 00:38:36;;;;;;;8.93;4.30;;;1.30;99.90;;;;;;5013713;28;20087;-79
2022/12/07 00:41:07;;;;;;;6.20;3.92;;;1.30;99.90;;;;;;5008384;28;20029;-79
2022/12/07 00:43:33;;;;;;;7.85;4.28;;;1.20;99.90;;;;;;5014126;28;20506;-80
2022/12/07 00:45:59;;;;;;;9.13;4.47;;;1.20;99.90;;;;;;5025270;28;20120;-79
2022/12/07 00:48:25;;;;;;;5.68;3.78;;;1.20;99.90;;;;;;5015702;28;20033;-79
2022/12/07 00:50:52;;;;;;;7.95;4.63;;;1.20;99.90;;;;;;5034118;28;20055;-79
2022/12/07 00:53:19;;;;;;;6.30;3.70;;;1.20;99.90;;;;;;5012025;28;20546;-79
2022/12/07 00:55:45;;;;;;;6.55;4.10;;;1.20;99.90;;;;;;5002130;28;20027;-80
2022/12/07 00:58:11;;;;;;;14.05;3.58;;;1.20;99.90;;;;;;5031804;28;20660;-80
2022/12/07 01:00:39;;;;;;;11.15;3.28;;;1.20;99.90;;;;;;5011454;28;20021;-79
2022/12/07 01:03:06;;;;;;;17.73;4.53;;;1.20;99.90;;;;;;5011905;28;20057;-79
2022/12/07 01:05:31;;;;;;;15.55;3.60;;;1.20;99.90;;;;;;5014904;28;20037;-79
2022/12/07 01:07:57;;;;;;;42.30;3.88;;;1.10;99.90;;;;;;5015696;28;20728;-79
2022/12/07 01:10:23;;;;;;;44.38;5.20;;;1.10;99.90;;;;;;5049136;28;20041;-79
2022/12/07 01:12:49;;;;;;;11.38;3.05;;;1.10;99.90;;;;;;5029321;28;20076;-79
2022/12/07 01:15:15;;;;;;;5.10;3.08;;;1.10;99.90;;;;;;5014136;28;20053;-79
2022/12/07 01:17:41;;;;;;;7.65;3.20;;;1.10;99.90;;;;;;5031329;28;20031;-79
2022/12/07 01:20:07;;;;;;;12.90;3.92;;;1.10;99.90;;;;;;5031236;28;20037;-80
2022/12/07 01:22:37;;;;;;;7.75;3.50;;;1.10;99.90;;;;;;5031351;28;20056;-79
2022/12/07 01:25:04;;;;;;;8.27;3.28;;;1.10;99.90;;;;;;5031402;28;20060;-80
2022/12/07 01:27:30;;;;;;;4.43;3.30;;;1.10;99.90;;;;;;5030398;28;20037;-79
2022/12/07 01:29:56;;;;;;;6.10;3.72;;;1.10;99.90;;;;;;4998604;28;20064;-79
2022/12/07 01:32:22;;;;;;;5.63;3.40;;;1.10;99.90;;;;;;5029051;28;20664;-79
2022/12/07 01:34:48;;;;;;;5.20;3.38;;;1.10;99.90;;;;;;5031407;28;20033;-79
2022/12/07 01:37:14;;;;;;;9.52;3.65;;;1.10;99.90;;;;;;5021390;28;20096;-79
2022/12/07 01:39:41;;;;;;;7.68;3.80;;;1.10;99.90;;;;;;5014989;28;20128;-79
2022/12/07 01:42:12;;;;;;;6.57;3.75;;;1.10;99.90;;;;;;5041655;28;20065;-79
2022/12/07 01:45:15;;;;;;;6.10;4.18;;;1.10;99.90;;;;;;5011307;28;20042;-79
2022/12/07 01:47:55;;;;;;;5.40;3.65;;;1.10;99.90;;;;;;5011161;28;20484;-79
2022/12/07 01:50:24;;;;;;;7.90;4.38;;;1.10;99.90;;;;;;4996359;28;20454;-80
2022/12/07 01:52:51;;;;;;;5.10;3.35;;;1.10;99.90;;;;;;5030920;28;20033;-79
2022/12/07 01:55:18;;;;;;;6.55;4.05;;;1.10;99.90;;;;;;4997800;28;20025;-80
2022/12/07 01:57:49;;;;;;;7.45;4.43;;;1.10;99.90;;;;;;5029553;28;20517;-79
2022/12/07 02:00:16;;;;;;;8.77;4.95;;;1.10;99.90;;;;;;5022876;28;20489;-79
2022/12/07 02:02:47;;;;;;;9.20;5.55;;;1.10;99.90;;;;;;5031983;28;20029;-80
2022/12/07 02:05:13;;;;;;;9.13;5.20;;;1.10;99.90;;;;;;5029861;28;20524;-79
2022/12/07 02:07:39;;;;;;;9.82;5.55;;;1.10;99.90;;;;;;5045384;28;20037;-79
2022/12/07 02:10:13;;;;;;;11.38;6.63;;;1.10;99.90;;;;;;5010558;28;20041;-80
2022/12/07 02:12:44;;;;;;;11.27;7.07;;;1.10;99.90;;;;;;5028614;28;20030;-80
2022/12/07 02:15:11;;;;;;;12.45;6.97;;;1.20;99.90;;;;;;5036018;28;20061;-79
2022/12/07 02:17:48;;;;;;;9.68;6.20;;;1.20;99.90;;;;;;5014202;28;20033;-79
2022/12/07 02:20:33;;;;;;;11.60;6.55;;;1.20;99.90;;;;;;5034173;28;20033;-79
2022/12/07 02:23:31;;;;;;;37.17;8.55;;;1.20;99.90;;;;;;5047211;28;20029;-79
2022/12/07 02:26:14;;;;;;;92.50;9.75;;;1.20;99.90;;;;;;4987619;28;20039;-79
2022/12/07 02:29:10;;;;;;;11.68;7.32;;;1.20;99.90;;;;;;5030591;28;20036;-79
2022/12/07 02:31:37;;;;;;;;;;;1.20;99.90;;;;;;5035105;28;20054;-80
2022/12/07 02:34:15;;;;;;;19.23;7.32;;;1.20;99.90;;;;;;5027791;28;19936;-79
2022/12/07 02:36:49;;;;;;;12.07;7.60;;;1.20;99.90;;;;;;5039645;28;20037;-79
2022/12/07 02:39:39;;;;;;;14.93;8.35;;;1.10;99.90;;;;;;5047416;28;20025;-80
2022/12/07 02:42:14;;;;;;;16.50;9.23;;;1.10;99.90;;;;;;5043401;28;20037;-80
2022/12/07 02:44:41;;;;;;;13.82;8.13;;;1.10;99.90;;;;;;5046283;28;20036;-79
2022/12/07 02:47:10;;;;;;;14.35;8.25;;;1.10;99.90;;;;;;5012965;28;20429;-79
2022/12/07 02:49:38;;;;;;;15.52;8.63;;;1.10;99.90;;;;;;5012433;28;20504;-79
2022/12/07 02:52:04;;;;;;;13.88;8.48;;;1.10;99.90;;;;;;5013710;28;20063;-79
2022/12/07 02:54:30;;;;;;;12.98;7.93;;;1.10;99.90;;;;;;4985250;28;20061;-80
2022/12/07 02:56:58;;;;;;;16.63;8.40;;;1.00;99.90;;;;;;5028108;28;20040;-79
2022/12/07 02:59:30;;;;;;;12.75;7.97;;;1.00;99.90;;;;;;5032689;28;20045;-79
2022/12/07 03:02:17;;;;;;;14.50;8.20;;;1.00;99.90;;;;;;5046504;28;20033;-80
2022/12/07 03:04:59;;;;;;;13.18;7.72;;;1.00;99.90;;;;;;5014686;28;20081;-79
2022/12/07 03:07:28;;;;;;;13.18;8.13;;;1.00;99.90;;;;;;5045885;28;20061;-79
2022/12/07 03:10:29;;;;;;;12.32;7.45;;;1.00;99.90;;;;;;5030150;28;20029;-79
2022/12/07 03:13:04;;;;;;;13.32;7.88;;;1.00;99.90;;;;;;5022419;28;20124;-79
2022/12/07 03:16:00;;;;;;;12.98;7.85;;;0.90;99.90;;;;;;5016956;28;20035;-80
2022/12/07 03:18:32;;;;;;;13.32;8.30;;;0.90;99.90;;;;;;5048936;28;20029;-80
2022/12/07 03:21:02;;;;;;;13.43;7.72;;;0.90;99.90;;;;;;5020189;28;20650;-80
2022/12/07 03:23:31;;;;;;;12.40;7.75;;;0.90;99.90;;;;;;5048349;28;20178;-80
2022/12/07 03:26:00;;;;;;;12.25;7.82;;;0.90;99.90;;;;;;5036282;28;20029;-80
2022/12/07 03:28:32;;;;;;;16.63;9.48;;;0.90;99.90;;;;;;5033938;28;20036;-80
2022/12/07 03:31:13;;;;;;;13.40;7.63;;;1.00;99.90;;;;;;5050873;28;20554;-80
2022/12/07 03:34:28;;;;;;;11.57;7.38;;;1.00;99.90;;;;;;5045859;28;20422;-80
2022/12/07 03:37:04;;;;;;;15.88;8.23;;;1.00;99.90;;;;;;5033548;28;20067;-80
2022/12/07 03:39:35;;;;;;;14.02;8.05;;;1.00;99.90;;;;;;5044624;28;20448;-80
2022/12/07 03:42:05;;;;;;;13.88;8.18;;;1.00;99.90;;;;;;5046120;28;20083;-80
2022/12/07 03:44:32;;;;;;;13.82;7.68;;;1.00;99.90;;;;;;5013301;28;20121;-80
2022/12/07 03:47:23;;;;;;;14.65;7.43;;;1.10;99.90;;;;;;5040025;28;20036;-79
2022/12/07 03:49:55;;;;;;;14.60;7.80;;;1.10;99.90;;;;;;5047304;28;20095;-79
2022/12/07 03:52:32;;;;;;;54.38;9.18;;;1.10;99.90;;;;;;5050749;28;20116;-79
2022/12/07 03:55:20;;;;;;;35.80;7.72;;;1.10;99.90;;;;;;5040518;28;20021;-79
2022/12/07 03:57:51;;;;;;;14.60;8.05;;;1.10;99.90;;;;;;5030568;28;20048;-80
2022/12/07 04:00:18;;;;;;;15.75;8.80;;;1.10;99.90;;;;;;5015173;28;20125;-80
2022/12/07 04:02:43;;;;;;;15.45;9.00;;;1.10;99.90;;;;;;5046627;28;20087;-80
2022/12/07 04:05:10;;;;;;;16.33;8.73;;;1.10;99.90;;;;;;5028949;28;20610;-80
2022/12/07 04:07:36;;;;;;;18.98;8.77;;;1.10;99.90;;;;;;5036094;28;20025;-80
2022/12/07 04:10:03;;;;;;;15.45;8.85;;;1.20;99.90;;;;;;5030505;28;20512;-80
2022/12/07 04:12:29;;;;;;;16.15;9.60;;;1.10;99.90;;;;;;5032727;28;20032;-80
2022/12/07 04:14:54;;;;;;;17.92;10.23;;;1.10;99.90;;;;;;5016121;28;20128;-80
2022/12/07 04:17:20;;;;;;;20.08;10.13;;;1.10;99.90;;;;;;5047183;28;20083;-80
2022/12/07 04:19:46;;;;;;;19.33;9.15;;;1.20;99.90;;;;;;5032419;28;20032;-80
2022/12/07 04:22:11;;;;;;;16.15;8.90;;;1.10;99.90;;;;;;4996749;28;20041;-80
2022/12/07 04:24:38;;;;;;;18.10;9.23;;;1.10;99.90;;;;;;5032288;28;20037;-79
2022/12/07 04:27:04;;;;;;;19.77;9.68;;;1.10;99.90;;;;;;5044902;28;20039;-80
2022/12/07 04:29:30;;;;;;;17.13;8.93;;;1.10;99.90;;;;;;5045814;28;20029;-80
2022/12/07 04:31:56;;;;;;;17.13;9.15;;;1.10;99.90;;;;;;5045750;28;20025;-80
2022/12/07 04:34:21;;;;;;;18.58;9.18;;;1.10;99.90;;;;;;5034030;28;20056;-79
2022/12/07 04:36:48;;;;;;;15.20;9.15;;;1.10;99.90;;;;;;5037152;28;20567;-80
2022/12/07 04:39:26;;;;;;;17.73;9.52;;;1.10;99.90;;;;;;5029135;28;20103;-80
2022/12/07 04:41:52;;;;;;;16.40;8.80;;;1.20;99.90;;;;;;5023014;28;20033;-79
2022/12/07 04:44:19;;;;;;;17.45;9.20;;;1.10;99.90;;;;;;5015314;28;20119;-80
2022/12/07 04:46:45;;;;;;;20.58;10.50;;;1.10;99.90;;;;;;5026001;28;20029;-79
2022/12/07 04:49:12;;;;;;;19.50;10.52;;;1.10;99.90;;;;;;5050106;28;20026;-79
2022/12/07 04:52:01;;;;;;;17.65;9.25;;;1.10;99.90;;;;;;5048964;28;20143;-80
2022/12/07 04:54:27;;;;;;;14.75;9.38;;;1.10;99.90;;;;;;5028840;28;20041;-80
2022/12/07 04:56:53;;;;;;;21.23;10.25;;;1.10;99.90;;;;;;5039377;28;20051;-80
2022/12/07 04:59:19;;;;;;;17.38;9.95;;;1.20;99.90;;;;;;5031851;28;20045;-80
2022/12/07 05:01:44;;;;;;;17.25;9.27;;;1.20;99.90;;;;;;4995523;28;20034;-80
2022/12/07 05:04:10;;;;;;;16.95;9.40;;;1.20;99.90;;;;;;4997090;28;20385;-80
2022/12/07 05:06:36;;;;;;;17.55;9.05;;;1.20;99.90;;;;;;5032807;28;20068;-79
2022/12/07 05:09:03;;;;;;;19.52;9.35;;;1.20;99.90;;;;;;5044848;28;20064;-80
2022/12/07 05:11:38;;;;;;;16.67;9.13;;;1.20;99.90;;;;;;5043403;28;20033;-79
2022/12/07 05:14:10;;;;;;;17.13;9.48;;;1.10;99.90;;;;;;5013664;28;20060;-79
2022/12/07 05:16:36;;;;;;;19.52;9.90;;;1.10;99.90;;;;;;5038285;28;20056;-79
2022/12/07 05:19:02;;;;;;;17.20;8.98;;;1.10;99.90;;;;;;5033004;28;20029;-79
2022/12/07 05:21:28;;;;;;;17.83;9.75;;;1.10;99.90;;;;;;5033327;28;20094;-79
2022/12/07 05:23:54;;;;;;;19.30;9.30;;;1.10;99.90;;;;;;5001254;28;20553;-79
2022/12/07 05:26:20;;;;;;;19.25;9.82;;;1.20;99.90;;;;;;5008147;28;20120;-79
2022/12/07 05:28:50;;;;;;;18.67;10.20;;;1.10;99.90;;;;;;5035848;28;20116;-79
2022/12/07 05:31:16;;;;;;;18.75;9.93;;;1.20;99.90;;;;;;5037357;28;20143;-79
2022/12/07 05:33:42;;;;;;;19.40;10.07;;;1.20;99.90;;;;;;4998787;28;20541;-79
2022/12/07 05:36:08;;;;;;;21.00;10.10;;;1.10;99.90;;;;;;5032324;28;20025;-79
2022/12/07 05:38:34;;;;;;;16.73;8.77;;;1.20;99.90;;;;;;5041799;28;20129;-78
2022/12/07 05:41:04;;;;;;;16.77;8.85;;;1.10;99.90;;;;;;5042167;28;20037;-80
2022/12/07 05:43:32;;;;;;;16.25;8.85;;;1.10;99.90;;;;;;5028316;28;20117;-79
2022/12/07 05:45:58;;;;;;;16.52;8.95;;;1.10;99.90;;;;;;5021949;28;20071;-79
2022/12/07 05:48:25;;;;;;;17.70;9.15;;;1.10;99.90;;;;;;5047441;28;20037;-79
2022/12/07 05:50:51;;;;;;;16.23;8.63;;;1.10;99.90;;;;;;5052176;28;20037;-79
2022/12/07 05:53:18;;;;;;;24.50;9.27;;;1.10;99.90;;;;;;5036380;28;20022;-79
2022/12/07 05:55:43;;;;;;;15.57;8.05;;;1.20;99.90;;;;;;5027177;28;20478;-79
2022/12/07 06:00:55;;;;;;;14.35;8.85;;;1.10;99.90;;;;;;5021543;28;20127;-79
2022/12/07 06:03:21;;;;;;;19.80;8.43;;;1.20;99.90;;;;;;5034214;28;20041;-78
2022/12/07 06:05:47;;;;;;;16.35;9.20;;;1.20;99.90;;;;;;5039354;28;20087;-78
2022/12/07 06:08:14;;;;;;;14.38;8.63;;;1.10;99.90;;;;;;5035980;28;20042;-79
2022/12/07 06:10:41;;;;;;;18.98;8.88;;;1.10;99.90;;;;;;5037278;28;20025;-78
2022/12/07 06:13:07;;;;;;;17.92;7.97;;;1.10;99.90;;;;;;5034206;28;20037;-79
2022/12/07 06:15:36;;;;;;;15.63;9.48;;;1.10;99.90;;;;;;5024084;28;20084;-78
2022/12/07 06:18:01;;;;;;;15.68;8.85;;;1.10;99.90;;;;;;5050296;28;20029;-79
2022/12/07 06:20:27;;;;;;;14.93;8.48;;;1.10;99.90;;;;;;5033141;28;20116;-78
2022/12/07 06:22:53;;;;;;;15.05;8.00;;;1.10;99.90;;;;;;5016475;28;20040;-79
2022/12/07 06:25:19;;;;;;;13.30;7.88;;;1.00;99.90;;;;;;5018166;28;20815;-78
2022/12/07 06:27:45;;;;;;;18.40;8.80;;;1.00;99.90;;;;;;5035363;28;20405;-78
2022/12/07 06:30:11;;;;;;;12.45;7.47;;;1.00;99.90;;;;;;5017194;28;20021;-79
2022/12/07 06:32:37;;;;;;;14.23;7.53;;;1.00;99.90;;;;;;5018354;28;20063;-79
2022/12/07 06:35:03;;;;;;;12.98;8.23;;;1.00;99.90;;;;;;5051576;28;20493;-79
2022/12/07 06:37:29;;;;;;;14.05;7.63;;;1.00;99.90;;;;;;5030475;28;20062;-78
2022/12/07 06:39:55;;;;;;;20.45;8.45;;;1.00;99.90;;;;;;5016131;28;20493;-78
2022/12/07 06:42:22;;;;;;;15.20;8.02;;;1.00;99.90;;;;;;5026047;28;20079;-79
2022/12/07 06:44:47;;;;;;;16.38;7.05;;;1.10;99.90;;;;;;5034552;28;20136;-78
2022/12/07 06:47:13;;;;;;;18.02;9.15;;;1.10;99.90;;;;;;5048227;28;20127;-79
2022/12/07 06:49:39;;;;;;;13.90;7.60;;;1.10;99.90;;;;;;5052262;28;20037;-78
2022/12/07 06:52:05;;;;;;;20.58;7.82;;;1.10;99.90;;;;;;5033976;28;20565;-78
2022/12/07 06:54:31;;;;;;;19.27;8.98;;;1.10;99.90;;;;;;5001667;28;20040;-79
2022/12/07 06:56:57;;;;;;;18.13;9.07;;;1.10;99.90;;;;;;5045714;28;20537;-78
2022/12/07 06:59:23;;;;;;;19.50;9.52;;;1.10;99.90;;;;;;5001953;28;20025;-78
2022/12/07 07:01:49;;;;;;;17.80;8.93;;;1.10;99.90;;;;;;5016993;28;20041;-78
2022/12/07 07:04:14;;;;;;;19.85;9.00;;;1.10;99.90;;;;;;5018169;28;20033;-78
2022/12/07 07:06:40;;;;;;;18.50;8.75;;;1.10;99.90;;;;;;5033710;28;20032;-78
2022/12/07 07:09:06;;;;;;;16.48;7.90;;;1.10;99.90;;;;;;5006784;28;20049;-78
2022/12/07 07:11:32;;;;;;;26.50;9.38;;;1.20;99.90;;;;;;5010960;28;20025;-78
2022/12/07 07:14:01;;;;;;;18.77;9.60;;;1.20;99.90;;;;;;5011670;28;20091;-78
2022/12/07 07:16:31;;;;;;;20.42;10.07;;;1.20;99.90;;;;;;5051836;28;20029;-78
2022/12/07 07:18:57;;;;;;;17.38;9.10;;;1.20;99.90;;;;;;5047099;28;20039;-78
2022/12/07 07:21:23;;;;;;;16.90;9.18;;;1.10;99.90;;;;;;5016484;28;20021;-78
2022/12/07 07:23:48;;;;;;;18.75;9.27;;;1.20;99.90;;;;;;5051369;28;20041;-78
2022/12/07 07:26:14;;;;;;;19.70;9.52;;;1.20;99.90;;;;;;5018498;28;20040;-78
2022/12/07 07:28:40;;;;;;;19.55;9.65;;;1.20;99.90;;;;;;5033953;28;20401;-78
2022/12/07 07:31:05;;;;;;;21.35;9.90;;;1.20;99.90;;;;;;5018340;28;20584;-79
2022/12/07 07:33:31;;;;;;;20.80;10.77;;;1.20;99.90;;;;;;5033278;28;20086;-79
2022/12/07 07:35:57;;;;;;;23.55;10.30;;;1.30;99.90;;;;;;5017559;28;20178;-77
2022/12/07 07:38:23;;;;;;;26.02;10.35;;;1.30;99.90;;;;;;5017531;28;20039;-78
2022/12/07 07:40:49;;;;;;;36.67;11.63;;;1.30;99.90;;;;;;5028113;28;20036;-78
2022/12/07 07:43:14;;;;;;;20.40;10.20;;;1.30;99.90;;;;;;5029687;28;20047;-78
2022/12/07 07:45:40;;;;;;;21.10;10.35;;;1.30;99.90;;;;;;5013730;28;20091;-77
2022/12/07 07:48:06;;;;;;;22.92;9.85;;;1.30;99.90;;;;;;5006843;28;20037;-78
2022/12/07 07:50:32;;;;;;;79.20;12.75;;;1.30;99.90;;;;;;5033258;28;20037;-78
2022/12/07 07:52:58;;;;;;;23.23;11.07;;;1.40;99.90;;;;;;5023795;28;20025;-77
2022/12/07 07:55:24;;;;;;;21.55;10.57;;;1.40;99.90;;;;;;5032124;28;20048;-78
2022/12/07 07:57:49;;;;;;;24.00;11.48;;;1.30;99.90;;;;;;5022081;28;20059;-78
2022/12/07 08:00:16;;;;;;;26.75;11.25;;;1.30;99.90;;;;;;5016261;28;20094;-78
2022/12/07 08:02:43;;;;;;;25.45;12.20;;;1.40;99.90;;;;;;5027017;28;20098;-78
2022/12/07 08:05:10;;;;;;;24.88;11.95;;;1.40;99.90;;;;;;5016794;28;20501;-78
2022/12/07 08:07:35;;;;;;;25.30;11.35;;;1.30;99.90;;;;;;5023891;28;20036;-78
2022/12/07 08:10:02;;;;;;;27.33;11.93;;;1.40;99.90;;;;;;5016236;28;20040;-77
2022/12/07 08:12:28;;;;;;;23.92;11.05;;;1.40;99.90;;;;;;5039962;28;20033;-78
2022/12/07 08:14:53;;;;;;;22.40;10.73;;;1.40;99.90;;;;;;5032770;28;20120;-77
2022/12/07 08:17:19;;;;;;;31.05;12.63;;;1.40;99.90;;;;;;5017212;28;20029;-78
2022/12/07 08:19:45;;;;;;;24.13;10.93;;;1.50;99.90;;;;;;5016452;28;20029;-77
2022/12/07 08:22:11;;;;;;;25.27;11.40;;;1.50;99.90;;;;;;5025977;28;20111;-78
2022/12/07 08:24:36;;;;;;;22.50;10.88;;;1.40;99.90;;;;;;5016814;28;20516;-78
2022/12/07 08:27:03;;;;;;;20.35;11.13;;;1.50;99.90;;;;;;5051578;28;20033;-78
2022/12/07 08:29:29;;;;;;;27.48;11.40;;;1.50;99.90;;;;;;5033622;28;20037;-77
2022/12/07 08:31:55;;;;;;;67.63;12.95;;;1.50;99.90;;;;;;5021752;28;20069;-77
2022/12/07 08:34:21;;;;;;;23.63;10.88;;;1.50;99.90;;;;;;5033696;28;20108;-77
2022/12/07 08:36:47;;;;;;;25.10;11.43;;;1.50;99.90;;;;;;5048119;28;20412;-78
2022/12/07 08:39:12;;;;;;;25.75;10.75;;;1.50;99.90;;;;;;5010339;28;20087;-77
2022/12/07 08:41:38;;;;;;;24.23;11.60;;;1.50;99.90;;;;;;5029219;28;20025;-78
2022/12/07 08:44:05;;;;;;;22.80;11.15;;;1.50;99.90;;;;;;5010558;28;22046;-77
2022/12/07 08:46:46;;;;;;;21.23;10.77;;;1.60;99.90;;;;;;5044127;28;20041;-77
2022/12/07 08:49:23;;;;;;;23.85;10.43;;;1.50;99.90;;;;;;5034910;28;20567;-77
2022/12/07 08:51:49;;;;;;;26.58;11.05;;;1.60;99.90;;;;;;5039349;28;20083;-78
2022/12/07 08:54:17;;;;;;;22.40;11.02;;;1.60;99.90;;;;;;5011952;28;20029;-77
2022/12/07 08:56:46;;;;;;;26.38;10.68;;;1.60;99.90;;;;;;5030395;28;20068;-77
2022/12/07 08:59:16;;;;;;;21.55;10.38;;;1.60;99.90;;;;;;5031029;28;20033;-78
2022/12/07 09:01:43;;;;;;;21.17;10.70;;;1.60;99.90;;;;;;5012425;28;20029;-78
2022/12/07 09:04:08;;;;;;;19.35;10.20;;;1.60;99.90;;;;;;5023710;28;20483;-78
2022/12/07 09:06:34;;;;;;;22.15;10.35;;;1.60;99.90;;;;;;4982216;28;20402;-78
2022/12/07 09:09:01;;;;;;;26.95;13.07;;;1.70;99.90;;;;;;5029923;28;20123;-77
2022/12/07 09:11:27;;;;;;;27.02;11.20;;;1.60;99.90;;;;;;5046394;28;20025;-77
2022/12/07 09:13:53;;;;;;;23.92;11.00;;;1.70;99.90;;;;;;5028766;28;20082;-77
2022/12/07 09:16:18;;;;;;;28.88;12.25;;;1.60;99.90;;;;;;5046813;28;20136;-77
2022/12/07 09:18:44;;;;;;;23.75;11.10;;;1.70;99.90;;;;;;5043590;28;20028;-78
2022/12/07 09:21:10;;;;;;;25.80;12.40;;;1.70;99.90;;;;;;5011105;28;20052;-78
2022/12/07 09:23:36;;;;;;;23.77;11.57;;;1.70;99.90;;;;;;5041224;28;20030;-77
2022/12/07 09:26:04;;;;;;;29.13;11.82;;;1.70;99.90;;;;;;5041971;28;20514;-76
2022/12/07 09:28:33;;;;;;;25.20;11.27;;;1.70;99.90;;;;;;5040171;28;20055;-77
2022/12/07 09:30:58;;;;;;;26.00;12.55;;;1.70;99.90;;;;;;4991548;28;20033;-77
2022/12/07 09:33:24;;;;;;;29.45;12.63;;;1.70;99.90;;;;;;5025596;28;20108;-76
2022/12/07 09:35:51;;;;;;;26.15;12.15;;;1.70;99.90;;;;;;5046079;28;20051;-79
2022/12/07 09:38:18;;;;;;;28.60;13.00;;;1.80;99.90;;;;;;5034005;28;20055;-78
2022/12/07 09:40:45;;;;;;;26.58;11.70;;;1.70;99.90;;;;;;5028983;28;20094;-77
2022/12/07 09:43:22;;;;;;;27.63;12.13;;;1.80;99.90;;;;;;5031919;28;20123;-78
2022/12/07 09:45:51;;;;;;;25.65;11.43;;;1.80;99.90;;;;;;5039255;28;20041;-78
2022/12/07 09:48:21;;;;;;;35.78;12.98;;;1.80;99.90;;;;;;5026507;28;20040;-77
2022/12/07 09:50:49;;;;;;;27.10;12.80;;;1.80;99.90;;;;;;5025287;28;20021;-78
2022/12/07 09:53:25;;;;;;;23.75;11.00;;;1.80;99.90;;;;;;5009528;28;20102;-78
2022/12/07 09:55:51;;;;;;;32.20;11.93;;;1.80;99.90;;;;;;5010417;28;20025;-77
2022/12/07 09:58:22;;;;;;;21.67;11.10;;;1.80;99.90;;;;;;5033633;28;20061;-77
2022/12/07 10:00:52;;;;;;;26.48;11.63;;;1.90;99.90;;;;;;5026392;28;20029;-77
2022/12/07 10:03:18;;;;;;;25.08;11.15;;;1.90;99.90;;;;;;5017805;28;20117;-77
2022/12/07 10:05:50;;;;;;;20.92;10.15;;;1.90;99.90;;;;;;5011965;28;20119;-78
2022/12/07 10:08:17;;;;;;;25.70;11.50;;;1.90;99.90;;;;;;5027390;28;20124;-77
2022/12/07 10:10:44;;;;;;;23.58;11.30;;;1.90;99.90;;;;;;5023474;28;20440;-77
2022/12/07 10:13:14;;;;;;;24.15;11.10;;;1.90;99.90;;;;;;5018841;28;20498;-77
2022/12/07 10:15:55;;;;;;;20.50;10.45;;;1.90;99.90;;;;;;5027322;28;20021;-77
2022/12/07 10:18:35;;;;;;;23.70;10.68;;;2.00;99.90;;;;;;5023949;28;20025;-77
2022/12/07 10:21:20;;;;;;;22.95;10.75;;;2.00;99.90;;;;;;5037279;28;20037;-78
2022/12/07 10:24:03;;;;;;;24.05;10.13;;;2.10;99.90;;;;;;5030625;28;20030;-77
2022/12/07 10:26:46;;;;;;;23.45;10.77;;;2.10;99.90;;;;;;5029793;28;20049;-77
2022/12/07 10:29:17;;;;;;;25.77;11.52;;;2.10;99.90;;;;;;5009267;28;20041;-78
2022/12/07 10:31:44;;;;;;;22.90;10.13;;;2.10;99.90;;;;;;5025967;28;20025;-77
2022/12/07 10:34:37;;;;;;;20.05;10.20;;;2.10;99.90;;;;;;5023598;28;20120;-77
2022/12/07 10:37:27;;;;;;;22.70;11.30;;;2.20;99.90;;;;;;5023081;28;20103;-79
2022/12/07 10:39:55;;;;;;;22.20;10.73;;;2.20;99.90;;;;;;5032368;28;20037;-79
2022/12/07 10:42:32;;;;;;;23.40;10.75;;;2.10;99.90;;;;;;5042235;28;20573;-79
2022/12/07 10:45:17;;;;;;;24.83;11.63;;;2.20;99.90;;;;;;4994234;28;20029;-79
2022/12/07 10:47:43;;;;;;;29.92;12.25;;;2.20;99.90;;;;;;5028740;28;20050;-79
2022/12/07 10:50:17;;;;;;;21.73;11.07;;;2.20;99.90;;;;;;5032396;28;20033;-79
2022/12/07 10:52:58;;;;;;;20.35;10.32;;;2.10;99.90;;;;;;5009783;28;20041;-78
2022/12/07 10:55:54;;;;;;;22.27;11.10;;;2.10;99.90;;;;;;5038391;28;20109;-78
2022/12/07 10:58:45;;;;;;;23.00;10.20;;;2.10;99.90;;;;;;5030398;28;20037;-79
2022/12/07 11:01:25;;;;;;;22.08;10.68;;;2.20;99.90;;;;;;5052435;28;20107;-79
2022/12/07 11:04:35;;;;;;;23.67;11.10;;;2.20;99.90;;;;;;5039764;28;20026;-78
2022/12/07 11:07:28;;;;;;;25.48;9.95;;;2.20;99.90;;;;;;5043350;28;20063;-78
2022/12/07 11:10:21;;;;;;;22.52;10.55;;;2.20;99.90;;;;;;5036578;28;20029;-78
2022/12/07 11:13:13;;;;;;;21.13;10.07;;;2.20;99.90;;;;;;5021857;28;20072;-79
2022/12/07 11:15:42;;;;;;;18.23;9.10;;;2.20;99.90;;;;;;5039732;28;20029;-79
2022/12/07 11:18:32;;;;;;;20.60;9.88;;;2.30;99.90;;;;;;5033829;28;20021;-78
2022/12/07 11:21:01;;;;;;;23.40;10.20;;;2.40;99.90;;;;;;5022058;28;20040;-79
2022/12/07 11:23:39;;;;;;;21.42;10.45;;;2.50;99.90;;;;;;5051197;28;20037;-79
2022/12/07 11:26:05;;;;;;;21.10;10.88;;;2.50;99.90;;;;;;5028213;28;20037;-79
2022/12/07 11:28:54;;;;;;;20.15;10.88;;;2.60;99.90;;;;;;5044957;28;20094;-79
2022/12/07 11:31:56;;;;;;;21.92;10.07;;;2.60;99.90;;;;;;5032817;28;20534;-78
2022/12/07 11:34:46;;;;;;;23.67;9.48;;;2.70;99.90;;;;;;5027713;28;20037;-78
2022/12/07 11:37:18;;;;;;;18.92;9.85;;;2.70;99.90;;;;;;5045538;28;20034;-78
2022/12/07 11:39:48;;;;;;;18.60;10.00;;;2.70;99.90;;;;;;5041375;28;20108;-78
2022/12/07 11:42:41;;;;;;;20.30;10.00;;;2.80;99.90;;;;;;5030373;28;20045;-79
2022/12/07 11:45:23;;;;;;;16.42;9.18;;;2.80;99.90;;;;;;5023848;28;20489;-79
2022/12/07 11:48:09;;;;;;;20.98;10.27;;;2.90;99.90;;;;;;5040778;28;20345;-79
2022/12/07 11:50:51;;;;;;;19.42;9.90;;;2.90;99.90;;;;;;5047287;28;20024;-79
2022/12/07 11:53:27;;;;;;;17.80;9.20;;;3.00;99.90;;;;;;5038790;28;20029;-79
2022/12/07 11:56:13;;;;;;;21.20;10.43;;;3.10;99.90;;;;;;5046339;28;20048;-77
2022/12/07 11:59:15;;;;;;;15.75;8.98;;;3.20;99.90;;;;;;5025965;28;20033;-78
2022/12/07 12:02:11;;;;;;;18.67;8.93;;;3.20;99.90;;;;;;4987702;28;20494;-77
2022/12/07 12:05:02;;;;;;;19.48;9.02;;;3.20;99.90;;;;;;5038343;28;20105;-78
2022/12/07 12:07:28;;;;;;;15.38;8.43;;;3.20;99.90;;;;;;5039780;28;20025;-77
2022/12/07 12:10:02;;;;;;;16.20;9.73;;;3.20;99.90;;;;;;5013251;28;20037;-78
2022/12/07 12:13:05;;;;;;;16.48;8.45;;;3.20;99.90;;;;;;5028874;28;20032;-77
2022/12/07 12:15:51;;;;;;;15.48;8.15;;;3.30;99.90;;;;;;5028903;28;20056;-77
2022/12/07 12:18:20;;;;;;;12.70;7.55;;;3.30;99.90;;;;;;5032306;28;20513;-77
2022/12/07 12:20:56;;;;;;;14.27;7.95;;;3.30;99.90;;;;;;5045477;28;20021;-77
2022/12/07 12:23:44;;;;;;;13.82;7.90;;;3.30;99.90;;;;;;5027585;28;20362;-77
2022/12/07 12:26:22;;;;;;;12.77;7.28;;;3.30;99.90;;;;;;5045656;28;20111;-79
2022/12/07 12:28:53;;;;;;;12.05;7.45;;;3.30;99.90;;;;;;5019397;28;20044;-78
2022/12/07 12:31:22;;;;;;;14.40;7.90;;;3.30;99.90;;;;;;5031617;28;20048;-78
2022/12/07 12:33:56;;;;;;;13.65;7.97;;;3.40;99.90;;;;;;5043432;28;20048;-78
2022/12/07 12:36:44;;;;;;;14.23;7.70;;;3.40;99.90;;;;;;5045331;28;20090;-79
2022/12/07 12:39:14;;;;;;;14.20;8.70;;;3.50;99.90;;;;;;5046670;28;20029;-79
2022/12/07 12:44:14;;;;;;;17.55;8.13;;;3.50;99.90;;;;;;5047688;28;20056;-77
2022/12/07 12:46:58;;;;;;;14.70;7.50;;;3.50;99.90;;;;;;5042404;28;20477;-78
2022/12/07 12:49:24;;;;;;;15.65;7.68;;;3.40;99.90;;;;;;5040918;28;20414;-78
2022/12/07 12:51:59;;;;;;;14.43;7.20;;;3.50;99.90;;;;;;5034544;28;20052;-78
2022/12/07 12:54:36;;;;;;;12.80;7.20;;;3.40;99.90;;;;;;5039653;28;20032;-78
2022/12/07 12:57:30;;;;;;;12.40;7.63;;;3.40;99.90;;;;;;5027836;28;20037;-78
2022/12/07 13:00:00;;;;;;;14.00;8.18;;;3.40;99.90;;;;;;5003464;28;20033;-78
2022/12/07 13:02:32;;;;;;;13.13;8.15;;;3.40;99.90;;;;;;5058393;28;20036;-77
2022/12/07 13:05:07;;;;;;;14.20;7.55;;;3.40;99.90;;;;;;5044837;28;20029;-78
2022/12/07 13:10:23;;;;;;;13.00;6.53;;;3.40;99.90;;;;;;5028435;28;19917;-78
2022/12/07 13:13:00;;;;;;;12.23;7.00;;;3.50;99.90;;;;;;5037193;28;20040;-79
2022/12/07 13:15:38;;;;;;;12.43;7.28;;;3.40;99.90;;;;;;5011013;28;20033;-78